Hayden, CO

9:20 PM MDT on August 28, 2014 (GMT -0600)
Yampa Valley | Change Station
CLOSE
Current Station
Airport
Location: Hayden,
Elevation: 6601 ft
Nearby Weather Stations

Elev 6601 ft 40.48 °N, 107.22 °W | Updated 5 minutes ago

Clear
Clear
57 °F
Feels Like 57 °F
N
10
Wind Variable Wind from SE

Today
High -- | Low -- °F
--% Chance of Precip.
Yesterday
High -- | Low -- °F
Precip. -- in
6:32 AM 7:47 PM
Waxing Crescent, 11% visible
Pressure 30.25 in
Visibility 8.0 miles
Clouds Clear
Dew Point 48 °F
Humidity 72%
Rainfall 0.05 in
Snow Depth Not available.
UV 0 out of 12
Pollen 9.10 out of 12
Air Quality Not available.
Flu Activity Not available.
METAR KHDN 290315Z AUTO 13009KT 8SM CLR 14/09 A3025 RMK AO1

More Conditions Fewer Conditions

Pressure 30.25 in
Visibility 8.0 miles
Clouds Clear
Dew Point 48 °F
Humidity 72%
Rainfall 0.05 in
Snow Depth Not available.
UV 0 out of 12
Pollen 9.10 out of 12
Air Quality Not available.
Flu Activity Not available.
METAR KHDN 290315Z AUTO 13009KT 8SM CLR 14/09 A3025 RMK AO1

More Conditions Fewer Conditions

10-Day Weather Forecast

Almanac

Astronomy

Aug. 28, 2014 Rise Set
Actual Time 6:32 AM MDT 7:47 PM MDT
Civil Twilight 6:04 AM MDT 8:15 PM MDT
Nautical Twilight 5:30 AM MDT 8:49 PM MDT
Astronomical Twilight 4:54 AM MDT 9:24 PM MDT
Moon 9:28 AM MDT (8/28) 9:11 PM MDT (8/28)
Length of Visible Light 14h 11m
Length of Day
13h 14m
Tomorrow will be 2m 32s shorter.
Waxing Crescent, 11% of the Moon is Illuminated
Today
Waxing Crescent
Sep 2
First Quarter
Sep 8
Full
Sep 15
Last Quarter
Sep 24
New

Today's Extremes

State Highs State Lows

Community

WunderPhotos

Upload Photos

1,748,151 photos uploaded!

Nearby

Snow Depth

Station Depth Elevation
Ripple Creek 1 in 10340 ft
Dry Lake 0 in 8400 ft
Rabbit Ears 0 in 9400 ft
Elk River 0 in 8700 ft
Tower 0 in 10500 ft

Earthquake Activity

City Distance Mag. Time & Date
No recent earthquake activity has been reported nearby.
Minimum magnitude displayed is 2.5.

Coastal Water Temperatures

Place Temperature
No Stations Reporting

Nearby Weather Stations